Terminal Aerodrome Forecast
Issued by NWS Chicago, IL

Home | Current Version | Previous Version | Text Only | Print | Product List | Glossary Off
Versions: 1 2 3 4 5 6 7 8 9 10 11 12 13 14 15 16 17 18 19 20 21 22 23 24 25 26 27

000
FTUS43 KLOT 081517 AAA
TAFRFD
TAF AMD
KRFD 081517Z 0815/0912 23012KT P6SM SCT060 BKN100
     FM090100 22010KT P6SM -SN OVC070
     FM090400 25009KT 4SM -SN OVC025
      TEMPO 0906/0908 2SM -SN OVC018
     FM091000 30010G20KT P6SM VCSH OVC025=

USA.gov is the U.S. government's official web portal to all federal, state and local government web resources and services.